Terminal Aerodrome Forecast
Issued by NWS Chicago, IL

Home | Current Version | Previous Version | Text Only | Print | Product List | Glossary Off
Versions: 1 2 3 4 5 6 7 8 9 10 11 12 13 14 15 16 17 18 19 20 21 22 23 24 25 26 27 28 29 30 31 32 33 34 35 36

000
FTUS43 KLOT 301500 AAB
TAFRFD
TAF AMD
KRFD 301558Z 3016/3112 23013G23KT P6SM FEW013 BKN020 OVC040
     FM310100 26004KT P6SM SCT250
     FM310500 VRB03KT 4SM BR SCT250
     FM310700 VRB03KT 2SM BR SCT007
      TEMPO 3108/3112 BKN007=

USA.gov is the U.S. government's official web portal to all federal, state and local government web resources and services.